createdAt,value
2022-11-05T00:00:55.027Z,8.02
2022-11-05T00:02:55.989Z,8.07
2022-11-05T00:04:57.480Z,8.04
2022-11-05T00:06:58.690Z,8.03
2022-11-05T00:09:00.085Z,8
2022-11-05T00:11:01.615Z,8.02
2022-11-05T00:13:03.096Z,7.96
2022-11-05T00:15:04.438Z,7.99
2022-11-05T00:17:06.239Z,7.94
2022-11-05T00:19:07.230Z,7.98
2022-11-05T00:21:08.902Z,7.96
2022-11-05T00:23:10.548Z,8.01
2022-11-05T00:25:11.508Z,7.98
2022-11-05T00:27:12.921Z,7.91
2022-11-05T00:29:14.290Z,7.93
2022-11-05T00:31:16.137Z,7.93
2022-11-05T00:33:18.078Z,7.98
2022-11-05T00:35:19.519Z,7.99
2022-11-05T00:37:20.701Z,7.97
2022-11-05T00:39:21.852Z,7.95
2022-11-05T00:41:22.941Z,7.95
2022-11-05T00:43:24.451Z,7.95
2022-11-05T00:45:25.635Z,7.97
2022-11-05T00:47:26.754Z,7.98
2022-11-05T00:49:27.721Z,7.98
2022-11-05T00:51:28.788Z,7.98
2022-11-05T00:53:30.549Z,7.97
2022-11-05T00:55:32.006Z,8.01
2022-11-05T00:57:33.514Z,8.03
2022-11-05T00:59:34.983Z,8.04
2022-11-05T01:01:36.096Z,8.04
2022-11-05T01:03:37.592Z,8.01
2022-11-05T01:05:38.580Z,8.04
2022-11-05T01:07:40.434Z,7.99
2022-11-05T01:09:42.039Z,8.01
2022-11-05T01:11:43.845Z,8.03
2022-11-05T01:13:45.557Z,8.02
2022-11-05T01:15:46.638Z,8
2022-11-05T01:17:48.191Z,7.99
2022-11-05T01:19:49.597Z,7.97
2022-11-05T01:21:51.090Z,7.94
2022-11-05T01:23:52.493Z,7.94
2022-11-05T01:25:54.328Z,7.9
2022-11-05T01:27:56.023Z,7.88
2022-11-05T01:29:57.782Z,7.82
2022-11-05T01:34:00.574Z,7.85
2022-11-05T01:36:02.150Z,7.85
2022-11-05T01:38:03.254Z,7.83
2022-11-05T01:40:04.991Z,7.82
2022-11-05T01:42:06.018Z,7.85
2022-11-05T01:44:07.155Z,7.84
2022-11-05T01:46:09.090Z,7.84
2022-11-05T01:48:10.601Z,7.86
2022-11-05T01:50:12.202Z,7.81
2022-11-05T01:52:13.814Z,7.86
2022-11-05T01:54:15.626Z,7.86
2022-11-05T01:56:17.278Z,7.82
2022-11-05T01:58:18.224Z,7.81
2022-11-05T02:01:03.355Z,7.84
2022-11-05T02:03:04.864Z,7.82
2022-11-05T02:05:06.228Z,7.81
2022-11-05T02:07:07.838Z,7.82
2022-11-05T02:09:09.023Z,7.8
2022-11-05T02:11:10.634Z,7.81
2022-11-05T02:13:12.130Z,7.83
2022-11-05T02:15:13.290Z,7.8
2022-11-05T02:17:14.686Z,7.83
2022-11-05T02:19:16.388Z,7.79
2022-11-05T02:21:17.704Z,7.81
2022-11-05T02:23:18.812Z,7.81
2022-11-05T02:25:19.716Z,7.81
2022-11-05T02:27:21.345Z,7.83
2022-11-05T02:29:22.383Z,7.84
2022-11-05T02:31:24.295Z,7.84
2022-11-05T02:33:26.064Z,7.86
2022-11-05T02:35:27.786Z,7.89
2022-11-05T02:37:29.071Z,7.9
2022-11-05T02:39:30.119Z,7.91
2022-11-05T02:41:31.834Z,7.95
2022-11-05T02:43:32.959Z,7.95
2022-11-05T02:45:34.275Z,7.98
2022-11-05T02:47:35.417Z,7.96
2022-11-05T02:49:36.913Z,7.97
2022-11-05T02:51:37.925Z,7.96
2022-11-05T02:53:39.039Z,7.93
2022-11-05T02:55:40.752Z,7.98
2022-11-05T02:57:42.537Z,7.99
2022-11-05T02:59:44.402Z,7.97
2022-11-05T03:01:45.793Z,8.03
2022-11-05T03:03:46.854Z,8.01
2022-11-05T03:05:48.422Z,7.99
2022-11-05T03:07:50.285Z,8.02
2022-11-05T03:09:51.692Z,7.98
2022-11-05T03:11:52.721Z,7.97
2022-11-05T03:13:54.165Z,7.96
2022-11-05T03:15:55.552Z,7.98
2022-11-05T03:17:56.786Z,7.96
2022-11-05T03:19:57.896Z,7.92
2022-11-05T03:21:59.091Z,7.97
2022-11-05T03:24:00.431Z,7.94
2022-11-05T03:26:02.029Z,7.99
2022-11-05T03:28:03.086Z,7.96
2022-11-05T03:30:04.900Z,7.99
2022-11-05T03:32:06.544Z,7.96
2022-11-05T03:34:07.754Z,8
2022-11-05T03:36:08.952Z,7.99
2022-11-05T03:38:10.407Z,8.03
2022-11-05T03:40:11.933Z,8.01
2022-11-05T03:42:12.917Z,8.05
2022-11-05T03:44:14.501Z,8.04
2022-11-05T03:46:15.732Z,8.02
2022-11-05T03:48:17.033Z,8.01
2022-11-05T03:52:20.491Z,7.99
2022-11-05T03:54:21.560Z,8
2022-11-05T03:56:23.330Z,8.03
2022-11-05T03:58:24.336Z,8.02
2022-11-05T04:00:26.013Z,8.01
2022-11-05T04:02:27.482Z,8.03
2022-11-05T04:04:28.723Z,8.03
2022-11-05T04:06:29.764Z,7.99
2022-11-05T04:08:31.551Z,8.03
2022-11-05T04:10:33.124Z,8.04
2022-11-05T04:12:34.887Z,8.04
2022-11-05T04:14:36.232Z,8.02
2022-11-05T04:16:37.374Z,8.02
2022-11-05T04:18:38.703Z,8
2022-11-05T04:20:40.494Z,8.01
2022-11-05T04:22:42.410Z,8.01
2022-11-05T04:24:43.995Z,7.97
2022-11-05T04:26:45.613Z,8.01
2022-11-05T04:28:47.288Z,8.01
2022-11-05T04:30:48.633Z,7.98
2022-11-05T04:32:49.720Z,8
2022-11-05T04:34:51.017Z,7.99
2022-11-05T04:36:52.069Z,8
2022-11-05T04:38:53.627Z,8.04
2022-11-05T04:40:55.592Z,8.04
2022-11-05T04:42:57.183Z,8.04
2022-11-05T04:44:58.485Z,8.03
2022-11-05T04:46:59.921Z,8.03
2022-11-05T04:49:01.191Z,8.04
2022-11-05T04:51:02.755Z,8.05
2022-11-05T04:53:04.242Z,8.04
2022-11-05T04:55:05.694Z,8.07
2022-11-05T04:57:06.771Z,8.04
2022-11-05T04:59:08.078Z,8.03
2022-11-05T05:01:09.192Z,8.02
2022-11-05T05:03:10.951Z,8.04
2022-11-05T05:05:11.890Z,8.03
2022-11-05T05:07:13.470Z,8.04
2022-11-05T05:09:15.028Z,8.01
2022-11-05T05:11:16.799Z,8.04
2022-11-05T05:13:18.004Z,8.01
2022-11-05T05:15:19.323Z,8.03
2022-11-05T05:17:20.568Z,8.03
2022-11-05T05:19:22.333Z,8.04
2022-11-05T05:21:23.358Z,8.03
2022-11-05T05:23:25.241Z,8.02
2022-11-05T05:25:26.915Z,8.03
2022-11-05T05:27:27.978Z,8.04
2022-11-05T05:29:29.111Z,8
2022-11-05T05:31:30.165Z,8.01
2022-11-05T05:33:31.872Z,7.97
2022-11-05T05:35:32.860Z,8
2022-11-05T05:37:34.494Z,7.96
2022-11-05T05:39:36.317Z,7.98
2022-11-05T05:41:37.289Z,7.95
2022-11-05T05:43:38.521Z,7.93
2022-11-05T05:45:39.613Z,7.9
2022-11-05T05:47:40.514Z,7.9
2022-11-05T05:49:41.767Z,7.89
2022-11-05T05:51:43.011Z,7.85
2022-11-05T05:53:44.232Z,7.86
2022-11-05T05:55:45.218Z,7.88
2022-11-05T05:57:46.351Z,7.86
2022-11-05T05:59:48.102Z,7.85
2022-11-05T06:01:49.426Z,7.85
2022-11-05T06:03:50.491Z,7.83
2022-11-05T06:05:52.090Z,7.83
2022-11-05T06:07:53.527Z,7.82
2022-11-05T06:09:54.624Z,7.84
2022-11-05T06:11:55.969Z,7.83
2022-11-05T06:15:58.522Z,7.82
2022-11-05T06:17:59.949Z,7.84
2022-11-05T06:20:00.968Z,7.83
2022-11-05T06:22:02.218Z,7.82
2022-11-05T06:24:03.169Z,7.82
2022-11-05T06:26:04.220Z,7.8
2022-11-05T06:28:05.924Z,7.78
2022-11-05T06:30:07.408Z,7.8
2022-11-05T06:32:08.971Z,7.78
2022-11-05T06:34:10.045Z,7.78
2022-11-05T06:36:11.250Z,7.8
2022-11-05T06:38:12.470Z,7.84
2022-11-05T06:40:13.727Z,7.88
2022-11-05T06:42:19.154Z,7.91
2022-11-05T06:44:16.107Z,7.93
2022-11-05T06:46:17.417Z,7.94
2022-11-05T06:48:18.495Z,7.95
2022-11-05T06:50:20.192Z,7.91
2022-11-05T06:52:21.807Z,7.95
2022-11-05T06:54:23.692Z,7.97
2022-11-05T06:56:24.934Z,7.97
2022-11-05T06:58:26.422Z,7.97
2022-11-05T07:00:27.573Z,7.97
2022-11-05T07:02:29.398Z,8.01
2022-11-05T07:04:30.886Z,8.01
2022-11-05T07:06:36.767Z,8.03
2022-11-05T07:08:33.796Z,8.07
2022-11-05T07:10:35.552Z,8.04
2022-11-05T07:12:36.552Z,8.06
2022-11-05T07:14:38.061Z,8.07
2022-11-05T07:16:39.818Z,8.05
2022-11-05T07:18:41.508Z,8.07
2022-11-05T07:20:42.784Z,8.08
2022-11-05T07:22:44.362Z,8.08
2022-11-05T07:24:45.488Z,8.11
2022-11-05T07:26:46.862Z,8.24
2022-11-05T07:28:48.182Z,8.24
2022-11-05T07:30:49.881Z,8.16
2022-11-05T07:32:51.650Z,8.18
2022-11-05T07:34:53.394Z,8.25
2022-11-05T07:36:54.978Z,8.27
2022-11-05T07:39:00.028Z,8.31
2022-11-05T07:40:57.313Z,8.28
2022-11-05T07:42:59.241Z,8.34
2022-11-05T07:45:00.836Z,8.32
2022-11-05T07:47:02.317Z,8.34
2022-11-05T07:49:03.496Z,8.37
2022-11-05T07:51:04.822Z,8.39
2022-11-05T07:53:06.153Z,8.34
2022-11-05T07:55:07.073Z,8.43
2022-11-05T07:57:08.338Z,8.4
2022-11-05T07:59:10.167Z,8.41
2022-11-05T08:01:11.619Z,8.37
2022-11-05T08:03:13.173Z,8.43
2022-11-05T08:05:13.939Z,8.4
2022-11-05T08:07:15.382Z,8.44
2022-11-05T08:09:16.776Z,8.51
2022-11-05T08:11:18.115Z,8.45
2022-11-05T08:13:19.253Z,8.4
2022-11-05T08:15:20.701Z,8.3
2022-11-05T08:17:21.693Z,8.35
2022-11-05T08:19:22.739Z,8.4
2022-11-05T08:21:23.903Z,8.41
2022-11-05T08:23:25.257Z,8.34
2022-11-05T08:25:26.263Z,8.4
2022-11-05T08:27:27.911Z,8.43
2022-11-05T08:29:29.590Z,8.48
2022-11-05T08:31:30.768Z,8.42
2022-11-05T08:33:32.610Z,8.44
2022-11-05T08:35:33.973Z,8.47
2022-11-05T08:37:35.181Z,8.36
2022-11-05T08:39:36.454Z,8.4
2022-11-05T08:41:45.663Z,8.52
2022-11-05T08:43:39.522Z,8.5
2022-11-05T08:46:24.332Z,8.54
2022-11-05T08:48:26.240Z,8.58
2022-11-05T08:50:27.624Z,8.63
2022-11-05T08:52:28.598Z,8.63
2022-11-05T08:54:30.483Z,8.59
2022-11-05T08:56:32.005Z,8.59
2022-11-05T08:58:33.611Z,8.49
2022-11-05T09:02:37.055Z,8.54
2022-11-05T09:06:39.996Z,8.53
2022-11-05T09:08:41.524Z,8.49
2022-11-05T09:10:42.642Z,8.47
2022-11-05T09:12:43.989Z,8.51
2022-11-05T09:14:45.533Z,8.61
2022-11-05T09:16:46.579Z,8.62
2022-11-05T09:18:47.715Z,8.63
2022-11-05T09:20:49.004Z,8.6
2022-11-05T09:22:50.142Z,8.63
2022-11-05T09:24:51.981Z,8.64
2022-11-05T09:26:53.366Z,8.64
2022-11-05T09:28:54.661Z,8.63
2022-11-05T09:30:55.680Z,8.66
2022-11-05T09:32:56.807Z,8.64
2022-11-05T09:34:58.502Z,8.55
2022-11-05T09:37:00.115Z,8.57
2022-11-05T09:39:02.021Z,8.54
2022-11-05T09:41:03.880Z,8.58
2022-11-05T09:43:05.500Z,8.67
2022-11-05T09:45:07.381Z,8.73
2022-11-05T09:47:08.781Z,8.8
2022-11-05T09:49:09.738Z,8.76
2022-11-05T09:51:10.899Z,8.75
2022-11-05T09:53:12.830Z,8.78
2022-11-05T09:55:14.227Z,8.7
2022-11-05T09:57:15.298Z,8.81
2022-11-05T09:59:17.000Z,8.88
2022-11-05T10:01:18.987Z,8.9
2022-11-05T10:03:20.079Z,9.05
2022-11-05T10:05:22.003Z,9.06
2022-11-05T10:07:23.673Z,9.17
2022-11-05T10:09:24.786Z,9.22
2022-11-05T10:11:25.728Z,9.26
2022-11-05T10:13:27.137Z,9.4
2022-11-05T10:15:28.344Z,9.37
2022-11-05T10:17:31.885Z,9.35
2022-11-05T10:19:31.004Z,9.46
2022-11-05T10:21:59.975Z,9.62
2022-11-05T10:23:34.171Z,9.59
2022-11-05T10:25:44.906Z,9.48
2022-11-05T10:27:37.648Z,9.52
2022-11-05T10:29:39.188Z,9.68
2022-11-05T10:31:40.973Z,10.07
2022-11-05T10:33:42.154Z,9.78
2022-11-05T10:35:43.520Z,10.11
2022-11-05T10:37:45.405Z,10.09
2022-11-05T10:39:46.365Z,10.4
2022-11-05T10:41:48.107Z,10.29
2022-11-05T10:43:49.959Z,10.55
2022-11-05T10:45:50.772Z,10.38
2022-11-05T10:47:52.263Z,10.41
2022-11-05T10:49:53.493Z,10.59
2022-11-05T10:51:54.609Z,10.5
2022-11-05T10:54:01.485Z,10.7
2022-11-05T10:55:58.324Z,10.87
2022-11-05T10:57:59.560Z,11.1
2022-11-05T11:00:00.455Z,11.2
2022-11-05T11:02:01.788Z,10.84
2022-11-05T11:04:02.919Z,11.01
2022-11-05T11:06:04.410Z,11.06
2022-11-05T11:08:05.927Z,10.85
2022-11-05T11:10:06.799Z,10.8
2022-11-05T11:12:08.567Z,10.87
2022-11-05T11:14:09.971Z,10.82
2022-11-05T11:16:11.195Z,10.85
2022-11-05T11:18:13.027Z,10.74
2022-11-05T11:20:14.873Z,10.78
2022-11-05T11:22:16.269Z,10.85
2022-11-05T11:24:17.489Z,10.51
2022-11-05T11:26:18.465Z,10.47
2022-11-05T11:30:20.826Z,10.23
2022-11-05T11:32:22.435Z,10.33
2022-11-05T11:34:23.566Z,10.25
2022-11-05T11:36:24.652Z,10.27
2022-11-05T11:38:25.548Z,10.29
2022-11-05T11:40:27.293Z,10.33
2022-11-05T11:42:28.203Z,10.31
2022-11-05T11:44:29.806Z,10.3
2022-11-05T11:46:31.688Z,9.99
2022-11-05T11:48:33.446Z,9.93
2022-11-05T11:50:34.672Z,9.77
2022-11-05T11:52:36.410Z,9.73
2022-11-05T11:54:37.294Z,9.44
2022-11-05T11:56:38.454Z,9.11
2022-11-05T11:58:39.769Z,9.1
2022-11-05T12:00:40.956Z,8.89
2022-11-05T12:02:42.577Z,8.93
2022-11-05T12:04:43.672Z,8.8
2022-11-05T12:06:44.981Z,8.71
2022-11-05T12:08:47.029Z,8.66
2022-11-05T12:10:47.424Z,8.65
2022-11-05T12:12:48.359Z,8.61
2022-11-05T12:14:49.761Z,8.55
2022-11-05T12:16:51.089Z,8.61
2022-11-05T12:18:52.453Z,8.51
2022-11-05T12:20:58.113Z,8.54
2022-11-05T12:22:55.999Z,8.59
2022-11-05T12:24:56.964Z,8.7
2022-11-05T12:26:58.278Z,8.72
2022-11-05T12:29:17.083Z,8.71
2022-11-05T12:31:01.446Z,8.77
2022-11-05T12:33:03.247Z,8.81
2022-11-05T12:35:04.693Z,8.77
2022-11-05T12:37:05.803Z,8.82
2022-11-05T12:39:07.208Z,8.91
2022-11-05T12:41:08.784Z,8.91
2022-11-05T12:43:11.828Z,8.82
2022-11-05T12:45:12.059Z,8.87
2022-11-05T12:47:13.769Z,8.79
2022-11-05T12:49:15.405Z,8.92
2022-11-05T12:51:16.412Z,8.9
2022-11-05T12:53:17.691Z,8.74
2022-11-05T12:55:19.142Z,8.83
2022-11-05T12:57:20.637Z,8.85
2022-11-05T12:59:22.242Z,9
2022-11-05T13:01:24.156Z,8.98
2022-11-05T13:03:25.743Z,8.92
2022-11-05T13:05:27.409Z,9.06
2022-11-05T13:07:29.003Z,9.15
2022-11-05T13:09:30.782Z,9.05
2022-11-05T13:11:31.734Z,9.22
2022-11-05T13:13:32.662Z,9.31
2022-11-05T13:15:33.803Z,9.42
2022-11-05T13:17:35.523Z,9.45
2022-11-05T13:19:36.400Z,9.48
2022-11-05T13:21:37.724Z,9.27
2022-11-05T13:23:39.222Z,9.27
2022-11-05T13:25:41.018Z,9.28
2022-11-05T13:27:42.722Z,9.28
2022-11-05T13:29:43.966Z,9.3
2022-11-05T13:31:45.058Z,9.3
2022-11-05T13:33:46.194Z,9.37
2022-11-05T13:35:47.995Z,9.45
2022-11-05T13:37:49.207Z,9.68
2022-11-05T13:39:50.457Z,9.69
2022-11-05T13:41:51.920Z,9.64
2022-11-05T13:43:53.348Z,9.75
2022-11-05T13:45:55.087Z,9.77
2022-11-05T13:47:56.901Z,9.77
2022-11-05T13:49:58.574Z,9.72
2022-11-05T13:54:01.458Z,9.58
2022-11-05T13:56:02.442Z,9.51
2022-11-05T13:58:04.156Z,9.52
2022-11-05T14:00:05.713Z,9.45
2022-11-05T14:02:07.663Z,9.39
2022-11-05T14:04:09.228Z,9.33
2022-11-05T14:06:10.866Z,9.1
2022-11-05T14:08:12.757Z,8.6
2022-11-05T14:10:14.631Z,8.6
2022-11-05T14:12:15.525Z,8.5
2022-11-05T14:14:16.478Z,8.83
2022-11-05T14:16:18.256Z,8.79
2022-11-05T14:18:19.258Z,8.54
2022-11-05T14:20:20.614Z,8.5
2022-11-05T14:22:22.095Z,8.36
2022-11-05T14:24:23.160Z,8.34
2022-11-05T14:26:24.993Z,8.38
2022-11-05T14:28:26.268Z,8.47
2022-11-05T14:30:27.955Z,8.51
2022-11-05T14:32:29.145Z,8.46
2022-11-05T14:34:30.863Z,8.44
2022-11-05T14:36:32.192Z,8.55
2022-11-05T14:38:33.666Z,8.64
2022-11-05T14:40:34.856Z,8.54
2022-11-05T14:42:36.210Z,8.63
2022-11-05T14:44:37.917Z,8.71
2022-11-05T14:46:39.468Z,8.53
2022-11-05T14:48:41.310Z,8.46
2022-11-05T14:50:43.221Z,8.5
2022-11-05T14:52:44.819Z,8.47
2022-11-05T14:54:46.084Z,8.4
2022-11-05T14:56:50.617Z,8.47
2022-11-05T14:58:49.049Z,8.45
2022-11-05T15:00:50.811Z,8.46
2022-11-05T15:02:52.454Z,8.4
2022-11-05T15:04:53.487Z,8.5
2022-11-05T15:06:54.778Z,8.52
2022-11-05T15:08:56.391Z,8.55
2022-11-05T15:10:57.957Z,8.62
2022-11-05T15:12:59.441Z,8.61
2022-11-05T15:15:00.652Z,8.68
2022-11-05T15:17:02.550Z,8.68
2022-11-05T15:19:04.057Z,8.64
2022-11-05T15:21:05.039Z,8.6
2022-11-05T15:23:06.516Z,8.56
2022-11-05T15:25:07.662Z,8.55
2022-11-05T15:27:08.899Z,8.54
2022-11-05T15:29:09.951Z,8.52
2022-11-05T15:31:11.307Z,8.52
2022-11-05T15:33:56.475Z,8.48
2022-11-05T15:35:57.965Z,8.46
2022-11-05T15:38:02.350Z,8.5
2022-11-05T15:40:00.492Z,8.52
2022-11-05T15:42:02.146Z,8.48
2022-11-05T15:44:03.450Z,8.45
2022-11-05T15:46:04.700Z,8.45
2022-11-05T15:48:06.418Z,8.47
2022-11-05T15:50:13.163Z,8.45
2022-11-05T15:52:09.419Z,8.37
2022-11-05T15:54:30.488Z,8.3
2022-11-05T15:56:12.664Z,8.24
2022-11-05T15:58:14.369Z,8.24
2022-11-05T16:00:15.840Z,8.18
2022-11-05T16:02:17.560Z,8.06
2022-11-05T16:04:19.277Z,8.04
2022-11-05T16:06:20.488Z,8.01
2022-11-05T16:08:21.538Z,8.05
2022-11-05T16:10:23.135Z,8.03
2022-11-05T16:12:24.655Z,8.01
2022-11-05T16:14:26.207Z,7.9
2022-11-05T16:16:27.522Z,7.86
2022-11-05T16:18:29.334Z,7.81
2022-11-05T16:20:30.670Z,7.8
2022-11-05T16:22:32.413Z,7.76
2022-11-05T16:24:33.919Z,7.81
2022-11-05T16:27:01.009Z,7.93
2022-11-05T16:28:36.976Z,7.98
2022-11-05T16:30:38.525Z,7.96
2022-11-05T16:32:39.757Z,8.03
2022-11-05T16:34:41.133Z,7.92
2022-11-05T16:36:42.265Z,7.88
2022-11-05T16:38:43.335Z,7.81
2022-11-05T16:40:44.595Z,7.78
2022-11-05T16:42:45.671Z,7.77
2022-11-05T16:44:46.845Z,7.7
2022-11-05T16:46:48.505Z,7.63
2022-11-05T16:48:50.362Z,7.66
2022-11-05T16:50:52.016Z,7.53
2022-11-05T16:54:54.440Z,7.43
2022-11-05T16:56:55.585Z,7.55
2022-11-05T16:58:56.934Z,7.6
2022-11-05T17:00:58.543Z,7.53
2022-11-05T17:02:59.690Z,7.55
2022-11-05T17:05:00.913Z,7.49
2022-11-05T17:07:02.850Z,7.55
2022-11-05T17:09:03.830Z,7.53
2022-11-05T17:11:05.710Z,7.36
2022-11-05T17:13:07.789Z,7.34
2022-11-05T17:15:09.250Z,7.31
2022-11-05T17:17:10.594Z,7.3
2022-11-05T17:19:12.461Z,7.31
2022-11-05T17:21:13.714Z,7.33
2022-11-05T17:23:15.576Z,7.28
2022-11-05T17:25:16.311Z,7.2
2022-11-05T17:27:18.083Z,7.16
2022-11-05T17:29:19.238Z,7.07
2022-11-05T17:31:20.466Z,7.11
2022-11-05T17:33:21.603Z,7.06
2022-11-05T17:35:22.513Z,7.07
2022-11-05T17:37:24.437Z,7.07
2022-11-05T17:39:30.411Z,7.02
2022-11-05T17:41:27.801Z,6.94
2022-11-05T17:43:29.049Z,6.89
2022-11-05T17:45:30.001Z,6.88
2022-11-05T17:47:31.296Z,6.86
2022-11-05T17:49:32.941Z,6.83
2022-11-05T17:51:33.961Z,6.87
2022-11-05T17:53:35.279Z,6.92
2022-11-05T17:55:36.335Z,6.79
2022-11-05T17:57:37.976Z,6.72
2022-11-05T17:59:39.510Z,6.75
2022-11-05T18:01:41.230Z,6.73
2022-11-05T18:03:42.431Z,6.78
2022-11-05T18:05:44.208Z,6.78
2022-11-05T18:07:45.237Z,6.75
2022-11-05T18:09:46.388Z,6.7
2022-11-05T18:11:47.952Z,6.66
2022-11-05T18:13:49.038Z,6.78
2022-11-05T18:15:50.863Z,6.7
2022-11-05T18:17:51.909Z,6.72
2022-11-05T18:19:53.597Z,6.54
2022-11-05T18:21:55.222Z,6.49
2022-11-05T18:23:56.959Z,6.4
2022-11-05T18:25:58.213Z,6.48
2022-11-05T18:27:59.766Z,6.48
2022-11-05T18:30:00.966Z,6.5
2022-11-05T18:32:02.709Z,6.45
2022-11-05T18:34:04.481Z,6.44
2022-11-05T18:36:05.497Z,6.46
2022-11-05T18:38:07.181Z,6.37
2022-11-05T18:40:08.172Z,6.47
2022-11-05T18:42:09.290Z,6.49
2022-11-05T18:44:10.649Z,6.44
2022-11-05T18:46:24.044Z,6.42
2022-11-05T18:48:13.765Z,6.36
2022-11-05T18:50:15.463Z,6.33
2022-11-05T18:52:17.256Z,6.24
2022-11-05T18:54:18.505Z,6.2
2022-11-05T18:56:19.676Z,6.32
2022-11-05T18:58:20.720Z,6.24
2022-11-05T19:00:22.130Z,6.25
2022-11-05T19:02:23.631Z,6.14
2022-11-05T19:04:25.001Z,6.15
2022-11-05T19:06:26.226Z,6.08
2022-11-05T19:08:27.721Z,6.02
2022-11-05T19:10:28.967Z,6.05
2022-11-05T19:12:30.626Z,5.99
2022-11-05T19:14:31.866Z,6.02
2022-11-05T19:18:34.708Z,6.02
2022-11-05T19:20:37.883Z,6.09
2022-11-05T19:22:37.581Z,5.89
2022-11-05T19:24:39.229Z,5.83
2022-11-05T19:26:40.479Z,5.87
2022-11-05T19:28:42.433Z,5.86
2022-11-05T19:30:43.727Z,5.94
2022-11-05T19:32:44.901Z,5.87
2022-11-05T19:34:46.185Z,5.86
2022-11-05T19:36:47.294Z,5.7
2022-11-05T19:38:49.203Z,5.73
2022-11-05T19:40:50.251Z,5.73
2022-11-05T19:42:51.683Z,5.62
2022-11-05T19:44:52.947Z,5.68
2022-11-05T19:46:54.364Z,5.69
2022-11-05T19:48:56.060Z,5.72
2022-11-05T19:50:57.987Z,5.73
2022-11-05T19:52:58.994Z,5.72
2022-11-05T19:55:00.590Z,5.7
2022-11-05T19:57:02.447Z,5.65
2022-11-05T19:59:03.559Z,5.46
2022-11-05T20:01:05.241Z,5.51
2022-11-05T20:03:06.319Z,5.36
2022-11-05T20:05:08.033Z,5.25
2022-11-05T20:07:09.244Z,5.18
2022-11-05T20:09:22.797Z,5.25
2022-11-05T20:11:12.279Z,5.17
2022-11-05T20:13:18.663Z,4.95
2022-11-05T20:15:15.125Z,5.11
2022-11-05T20:17:16.011Z,5.16
2022-11-05T20:19:17.235Z,4.99
2022-11-05T20:21:19.132Z,5.03
2022-11-05T20:23:20.961Z,5.04
2022-11-05T20:25:22.270Z,5.01
2022-11-05T20:27:24.311Z,5.08
2022-11-05T20:29:29.263Z,5.07
2022-11-05T20:31:26.666Z,5.04
2022-11-05T20:33:28.370Z,4.98
2022-11-05T20:35:29.402Z,4.92
2022-11-05T20:37:30.541Z,5
2022-11-05T20:39:32.545Z,4.96
2022-11-05T20:41:33.950Z,5.04
2022-11-05T20:43:35.747Z,5.09
2022-11-05T20:45:36.795Z,4.97
2022-11-05T20:47:38.343Z,4.95
2022-11-05T20:49:40.068Z,4.88
2022-11-05T20:51:41.138Z,4.95
2022-11-05T20:53:43.068Z,4.97
2022-11-05T20:55:44.232Z,4.92
2022-11-05T20:57:45.584Z,4.92
2022-11-05T20:59:46.585Z,4.99
2022-11-05T21:01:48.534Z,5.04
2022-11-05T21:03:50.294Z,5.05
2022-11-05T21:05:51.558Z,4.99
2022-11-05T21:07:52.558Z,4.99
2022-11-05T21:09:54.358Z,4.94
2022-11-05T21:11:55.750Z,5
2022-11-05T21:13:57.254Z,4.91
2022-11-05T21:15:59.110Z,4.94
2022-11-05T21:18:00.905Z,5
2022-11-05T21:20:02.899Z,4.99
2022-11-05T21:22:04.260Z,4.92
2022-11-05T21:24:05.833Z,5
2022-11-05T21:26:07.104Z,4.96
2022-11-05T21:28:09.076Z,4.99
2022-11-05T21:30:10.369Z,4.96
2022-11-05T21:32:12.013Z,4.93
2022-11-05T21:34:13.560Z,5.04
2022-11-05T21:36:15.525Z,4.92
2022-11-05T21:38:17.270Z,4.97
2022-11-05T21:40:19.268Z,4.96
2022-11-05T21:42:20.982Z,5.01
2022-11-05T21:44:22.665Z,5.08
2022-11-05T21:46:23.725Z,5.08
2022-11-05T21:48:25.299Z,5.03
2022-11-05T21:50:26.482Z,4.92
2022-11-05T21:52:27.689Z,5
2022-11-05T21:54:29.139Z,4.75
2022-11-05T21:56:30.460Z,4.89
2022-11-05T21:58:31.610Z,4.9
2022-11-05T22:00:32.930Z,4.8
2022-11-05T22:02:34.658Z,4.78
2022-11-05T22:04:36.497Z,4.66
2022-11-05T22:06:38.124Z,4.52
2022-11-05T22:08:40.065Z,4.44
2022-11-05T22:10:41.605Z,4.33
2022-11-05T22:12:42.959Z,4.31
2022-11-05T22:14:44.301Z,4.21
2022-11-05T22:16:45.674Z,4.17
2022-11-05T22:19:30.623Z,4.13
2022-11-05T22:21:32.325Z,4.09
2022-11-05T22:23:33.991Z,4.21
2022-11-05T22:25:35.340Z,4.23
2022-11-05T22:27:36.698Z,4.29
2022-11-05T22:29:37.839Z,4.25
2022-11-05T22:31:39.678Z,4.2
2022-11-05T22:33:41.682Z,4.32
2022-11-05T22:35:43.655Z,4.64
2022-11-05T22:37:45.031Z,4.76
2022-11-05T22:39:46.776Z,4.72
2022-11-05T22:41:48.688Z,4.74
2022-11-05T22:43:50.350Z,4.89
2022-11-05T22:45:52.117Z,4.85
2022-11-05T22:47:53.821Z,5.05
2022-11-05T22:49:55.064Z,4.94
2022-11-05T22:51:56.402Z,4.75
2022-11-05T22:53:57.877Z,4.7
2022-11-05T22:55:59.774Z,4.55
2022-11-05T22:58:00.973Z,4.37
2022-11-05T23:02:09.378Z,4.03
2022-11-05T23:04:05.535Z,3.98
2022-11-05T23:06:06.861Z,4.25
2022-11-05T23:08:08.871Z,4.46
2022-11-05T23:10:10.589Z,4.51
2022-11-05T23:12:12.461Z,4.52
2022-11-05T23:14:14.162Z,4.53
2022-11-05T23:16:16.083Z,4.47
2022-11-05T23:18:17.330Z,4.26
2022-11-05T23:20:18.502Z,4.18
2022-11-05T23:22:19.743Z,4.04
2022-11-05T23:24:20.839Z,3.97
2022-11-05T23:26:21.966Z,3.96
2022-11-05T23:28:23.358Z,3.99
2022-11-05T23:30:24.502Z,4.09
2022-11-05T23:32:25.776Z,4.07
2022-11-05T23:34:27.184Z,4.44
2022-11-05T23:36:28.428Z,4.34
2022-11-05T23:38:29.608Z,4.16
2022-11-05T23:40:31.285Z,4.11
2022-11-05T23:42:32.721Z,4.02
2022-11-05T23:44:34.123Z,4.02
2022-11-05T23:46:35.459Z,4.05
2022-11-05T23:48:36.695Z,4.04
2022-11-05T23:50:39.908Z,4.33
2022-11-05T23:52:39.985Z,4.31
2022-11-05T23:54:41.418Z,4.22
2022-11-05T23:56:42.636Z,3.98
2022-11-05T23:58:43.681Z,3.77
